sensor_id;sensor_type;location;lat;lon;timestamp;temperature;humidity
55135;DHT22;41031;44.750;11.308;2023-08-17T00:02:01;25.20;80.40
55135;DHT22;41031;44.750;11.308;2023-08-17T00:04:28;25.20;80.60
55135;DHT22;41031;44.750;11.308;2023-08-17T00:06:55;25.20;80.70
55135;DHT22;41031;44.750;11.308;2023-08-17T00:09:22;25.20;80.80
55135;DHT22;41031;44.750;11.308;2023-08-17T00:11:49;25.10;81.00
55135;DHT22;41031;44.750;11.308;2023-08-17T00:14:16;25.10;81.30
55135;DHT22;41031;44.750;11.308;2023-08-17T00:16:43;25.00;81.40
55135;DHT22;41031;44.750;11.308;2023-08-17T00:19:10;25.00;81.60
55135;DHT22;41031;44.750;11.308;2023-08-17T00:21:37;24.90;81.70
55135;DHT22;41031;44.750;11.308;2023-08-17T00:24:04;24.80;82.00
55135;DHT22;41031;44.750;11.308;2023-08-17T00:26:31;24.80;82.10
55135;DHT22;41031;44.750;11.308;2023-08-17T00:28:59;24.70;82.10
55135;DHT22;41031;44.750;11.308;2023-08-17T00:31:26;24.70;82.20
55135;DHT22;41031;44.750;11.308;2023-08-17T00:33:53;24.60;82.60
55135;DHT22;41031;44.750;11.308;2023-08-17T00:36:20;24.60;83.00
55135;DHT22;41031;44.750;11.308;2023-08-17T00:38:47;24.60;83.10
55135;DHT22;41031;44.750;11.308;2023-08-17T00:41:14;24.50;83.10
55135;DHT22;41031;44.750;11.308;2023-08-17T00:43:41;24.60;83.20
55135;DHT22;41031;44.750;11.308;2023-08-17T00:46:08;24.50;83.40
55135;DHT22;41031;44.750;11.308;2023-08-17T00:48:35;24.50;83.70
55135;DHT22;41031;44.750;11.308;2023-08-17T00:51:02;24.50;83.80
55135;DHT22;41031;44.750;11.308;2023-08-17T00:53:30;24.50;83.70
55135;DHT22;41031;44.750;11.308;2023-08-17T00:56:01;24.50;83.70
55135;DHT22;41031;44.750;11.308;2023-08-17T00:58:28;24.60;83.50
55135;DHT22;41031;44.750;11.308;2023-08-17T01:00:55;24.60;83.40
55135;DHT22;41031;44.750;11.308;2023-08-17T01:03:23;24.60;83.30
55135;DHT22;41031;44.750;11.308;2023-08-17T01:05:50;24.60;83.20
55135;DHT22;41031;44.750;11.308;2023-08-17T01:08:17;24.60;83.20
55135;DHT22;41031;44.750;11.308;2023-08-17T01:16:42;24.60;83.30
55135;DHT22;41031;44.750;11.308;2023-08-17T01:19:13;24.60;83.30
55135;DHT22;41031;44.750;11.308;2023-08-17T01:21:50;24.60;83.30
55135;DHT22;41031;44.750;11.308;2023-08-17T01:24:18;24.60;83.50
55135;DHT22;41031;44.750;11.308;2023-08-17T01:26:45;24.60;83.50
55135;DHT22;41031;44.750;11.308;2023-08-17T01:29:13;24.60;83.50
55135;DHT22;41031;44.750;11.308;2023-08-17T01:34:22;24.50;83.50
55135;DHT22;41031;44.750;11.308;2023-08-17T01:36:56;24.50;83.40
55135;DHT22;41031;44.750;11.308;2023-08-17T01:39:31;24.50;83.50
55135;DHT22;41031;44.750;11.308;2023-08-17T01:42:00;24.50;83.60
55135;DHT22;41031;44.750;11.308;2023-08-17T01:44:27;24.40;83.60
55135;DHT22;41031;44.750;11.308;2023-08-17T01:46:54;24.40;83.80
55135;DHT22;41031;44.750;11.308;2023-08-17T01:49:22;24.30;83.80
55135;DHT22;41031;44.750;11.308;2023-08-17T01:51:49;24.30;83.90
55135;DHT22;41031;44.750;11.308;2023-08-17T01:54:16;24.20;84.00
55135;DHT22;41031;44.750;11.308;2023-08-17T01:56:43;24.20;84.20
55135;DHT22;41031;44.750;11.308;2023-08-17T01:59:11;24.20;84.40
55135;DHT22;41031;44.750;11.308;2023-08-17T02:01:39;24.20;84.50
55135;DHT22;41031;44.750;11.308;2023-08-17T02:04:06;24.10;84.50
55135;DHT22;41031;44.750;11.308;2023-08-17T02:06:33;24.10;84.50
55135;DHT22;41031;44.750;11.308;2023-08-17T02:09:00;24.10;84.60
55135;DHT22;41031;44.750;11.308;2023-08-17T02:11:27;24.00;84.70
55135;DHT22;41031;44.750;11.308;2023-08-17T02:13:54;24.00;84.90
55135;DHT22;41031;44.750;11.308;2023-08-17T02:16:23;24.00;85.10
55135;DHT22;41031;44.750;11.308;2023-08-17T02:18:50;23.90;85.00
55135;DHT22;41031;44.750;11.308;2023-08-17T02:21:17;23.90;84.60
55135;DHT22;41031;44.750;11.308;2023-08-17T02:23:44;23.80;84.60
55135;DHT22;41031;44.750;11.308;2023-08-17T02:26:11;23.80;85.00
55135;DHT22;41031;44.750;11.308;2023-08-17T02:28:38;23.70;85.60
55135;DHT22;41031;44.750;11.308;2023-08-17T02:31:06;23.70;86.20
55135;DHT22;41031;44.750;11.308;2023-08-17T02:33:33;23.70;86.60
55135;DHT22;41031;44.750;11.308;2023-08-17T02:36:00;23.60;86.90
55135;DHT22;41031;44.750;11.308;2023-08-17T02:38:28;23.60;87.20
55135;DHT22;41031;44.750;11.308;2023-08-17T02:40:55;23.60;87.00
55135;DHT22;41031;44.750;11.308;2023-08-17T02:43:22;23.50;87.00
55135;DHT22;41031;44.750;11.308;2023-08-17T02:45:50;23.50;87.10
55135;DHT22;41031;44.750;11.308;2023-08-17T02:48:18;23.60;87.30
55135;DHT22;41031;44.750;11.308;2023-08-17T02:50:45;23.50;87.40
55135;DHT22;41031;44.750;11.308;2023-08-17T02:53:12;23.50;87.50
55135;DHT22;41031;44.750;11.308;2023-08-17T02:55:39;23.60;87.70
55135;DHT22;41031;44.750;11.308;2023-08-17T02:58:07;23.50;87.80
55135;DHT22;41031;44.750;11.308;2023-08-17T03:00:34;23.50;88.00
55135;DHT22;41031;44.750;11.308;2023-08-17T03:03:01;23.50;88.00
55135;DHT22;41031;44.750;11.308;2023-08-17T03:05:29;23.40;88.10
55135;DHT22;41031;44.750;11.308;2023-08-17T03:07:56;23.50;88.30
55135;DHT22;41031;44.750;11.308;2023-08-17T03:10:23;23.40;88.40
55135;DHT22;41031;44.750;11.308;2023-08-17T03:12:51;23.50;88.60
55135;DHT22;41031;44.750;11.308;2023-08-17T03:15:19;23.50;88.70
55135;DHT22;41031;44.750;11.308;2023-08-17T03:17:46;23.50;88.70
55135;DHT22;41031;44.750;11.308;2023-08-17T03:20:13;23.40;88.60
55135;DHT22;41031;44.750;11.308;2023-08-17T03:22:40;23.50;88.50
55135;DHT22;41031;44.750;11.308;2023-08-17T03:25:07;23.40;88.40
55135;DHT22;41031;44.750;11.308;2023-08-17T03:27:36;23.40;88.40
55135;DHT22;41031;44.750;11.308;2023-08-17T03:30:04;23.40;88.30
55135;DHT22;41031;44.750;11.308;2023-08-17T03:32:32;23.40;88.40
55135;DHT22;41031;44.750;11.308;2023-08-17T03:34:59;23.40;88.50
55135;DHT22;41031;44.750;11.308;2023-08-17T03:37:26;23.40;88.70
55135;DHT22;41031;44.750;11.308;2023-08-17T03:39:54;23.40;88.60
55135;DHT22;41031;44.750;11.308;2023-08-17T03:42:21;23.40;88.60
55135;DHT22;41031;44.750;11.308;2023-08-17T03:44:48;23.40;88.70
55135;DHT22;41031;44.750;11.308;2023-08-17T03:47:15;23.40;88.80
55135;DHT22;41031;44.750;11.308;2023-08-17T03:49:42;23.40;88.90
55135;DHT22;41031;44.750;11.308;2023-08-17T03:52:09;23.40;89.00
55135;DHT22;41031;44.750;11.308;2023-08-17T03:54:36;23.40;88.90
55135;DHT22;41031;44.750;11.308;2023-08-17T03:57:03;23.50;88.90
55135;DHT22;41031;44.750;11.308;2023-08-17T03:59:30;23.40;88.80
55135;DHT22;41031;44.750;11.308;2023-08-17T04:01:58;23.40;88.80
55135;DHT22;41031;44.750;11.308;2023-08-17T04:04:25;23.40;88.80
55135;DHT22;41031;44.750;11.308;2023-08-17T04:06:52;23.40;88.90
55135;DHT22;41031;44.750;11.308;2023-08-17T04:09:19;23.30;88.90
55135;DHT22;41031;44.750;11.308;2023-08-17T04:11:46;23.30;88.90
55135;DHT22;41031;44.750;11.308;2023-08-17T04:14:13;23.30;88.90
55135;DHT22;41031;44.750;11.308;2023-08-17T04:16:41;23.30;88.80
55135;DHT22;41031;44.750;11.308;2023-08-17T04:19:08;23.30;88.80
55135;DHT22;41031;44.750;11.308;2023-08-17T04:21:35;23.20;88.90
55135;DHT22;41031;44.750;11.308;2023-08-17T04:24:03;23.20;89.00
55135;DHT22;41031;44.750;11.308;2023-08-17T04:26:30;23.20;89.10
55135;DHT22;41031;44.750;11.308;2023-08-17T04:28:57;23.20;89.20
55135;DHT22;41031;44.750;11.308;2023-08-17T04:31:24;23.20;89.10
55135;DHT22;41031;44.750;11.308;2023-08-17T04:33:58;23.20;89.10
55135;DHT22;41031;44.750;11.308;2023-08-17T04:36:25;23.20;89.10
55135;DHT22;41031;44.750;11.308;2023-08-17T04:38:53;23.20;89.10
55135;DHT22;41031;44.750;11.308;2023-08-17T04:41:20;23.20;89.00
55135;DHT22;41031;44.750;11.308;2023-08-17T04:43:49;23.20;89.00
55135;DHT22;41031;44.750;11.308;2023-08-17T04:46:16;23.20;89.10
55135;DHT22;41031;44.750;11.308;2023-08-17T04:48:44;23.20;89.10
55135;DHT22;41031;44.750;11.308;2023-08-17T04:51:12;23.30;89.10
55135;DHT22;41031;44.750;11.308;2023-08-17T04:53:42;23.30;89.20
55135;DHT22;41031;44.750;11.308;2023-08-17T04:56:09;23.30;89.30
55135;DHT22;41031;44.750;11.308;2023-08-17T04:58:38;23.30;89.30
55135;DHT22;41031;44.750;11.308;2023-08-17T05:01:05;23.30;89.20
55135;DHT22;41031;44.750;11.308;2023-08-17T05:03:32;23.30;89.20
55135;DHT22;41031;44.750;11.308;2023-08-17T05:06:02;23.40;89.40
55135;DHT22;41031;44.750;11.308;2023-08-17T05:08:31;23.40;89.50
55135;DHT22;41031;44.750;11.308;2023-08-17T05:10:58;23.50;89.60
55135;DHT22;41031;44.750;11.308;2023-08-17T05:13:25;23.50;89.40
55135;DHT22;41031;44.750;11.308;2023-08-17T05:15:56;23.50;89.40
55135;DHT22;41031;44.750;11.308;2023-08-17T05:18:23;23.60;89.40
55135;DHT22;41031;44.750;11.308;2023-08-17T05:20:50;23.60;89.30
55135;DHT22;41031;44.750;11.308;2023-08-17T05:23:17;23.70;89.30
55135;DHT22;41031;44.750;11.308;2023-08-17T05:25:48;23.70;89.10
55135;DHT22;41031;44.750;11.308;2023-08-17T05:28:15;23.80;89.00
55135;DHT22;41031;44.750;11.308;2023-08-17T05:30:42;23.80;88.70
55135;DHT22;41031;44.750;11.308;2023-08-17T05:33:09;23.90;88.60
55135;DHT22;41031;44.750;11.308;2023-08-17T05:35:37;24.00;88.50
55135;DHT22;41031;44.750;11.308;2023-08-17T05:38:04;24.00;88.30
55135;DHT22;41031;44.750;11.308;2023-08-17T05:40:32;24.10;88.10
55135;DHT22;41031;44.750;11.308;2023-08-17T05:43:00;24.20;88.70
55135;DHT22;41031;44.750;11.308;2023-08-17T05:45:27;24.30;88.00
55135;DHT22;41031;44.750;11.308;2023-08-17T05:47:54;24.30;88.00
55135;DHT22;41031;44.750;11.308;2023-08-17T05:50:21;24.50;87.60
55135;DHT22;41031;44.750;11.308;2023-08-17T05:52:48;24.60;87.30
55135;DHT22;41031;44.750;11.308;2023-08-17T05:55:15;24.60;87.10
55135;DHT22;41031;44.750;11.308;2023-08-17T05:57:42;24.70;87.10
55135;DHT22;41031;44.750;11.308;2023-08-17T06:00:09;24.90;87.20
55135;DHT22;41031;44.750;11.308;2023-08-17T06:02:41;25.00;87.00
55135;DHT22;41031;44.750;11.308;2023-08-17T06:05:08;25.10;86.20
55135;DHT22;41031;44.750;11.308;2023-08-17T06:07:36;25.20;85.80
55135;DHT22;41031;44.750;11.308;2023-08-17T06:10:04;25.20;85.40
55135;DHT22;41031;44.750;11.308;2023-08-17T06:12:33;25.40;85.30
55135;DHT22;41031;44.750;11.308;2023-08-17T06:15:02;25.40;85.00
55135;DHT22;41031;44.750;11.308;2023-08-17T06:17:29;25.50;84.80
55135;DHT22;41031;44.750;11.308;2023-08-17T06:19:56;25.60;84.60
55135;DHT22;41031;44.750;11.308;2023-08-17T06:22:23;25.60;84.10
55135;DHT22;41031;44.750;11.308;2023-08-17T06:24:50;25.80;84.00
55135;DHT22;41031;44.750;11.308;2023-08-17T06:27:17;25.90;83.80
55135;DHT22;41031;44.750;11.308;2023-08-17T06:29:44;26.00;83.60
55135;DHT22;41031;44.750;11.308;2023-08-17T06:32:11;26.10;83.30
55135;DHT22;41031;44.750;11.308;2023-08-17T06:34:38;26.30;82.70
55135;DHT22;41031;44.750;11.308;2023-08-17T06:37:05;26.40;82.50
55135;DHT22;41031;44.750;11.308;2023-08-17T06:39:32;26.60;82.30
55135;DHT22;41031;44.750;11.308;2023-08-17T06:42:00;26.70;82.10
55135;DHT22;41031;44.750;11.308;2023-08-17T06:44:27;26.80;81.60
55135;DHT22;41031;44.750;11.308;2023-08-17T06:46:56;26.90;81.30
55135;DHT22;41031;44.750;11.308;2023-08-17T06:49:23;27.00;80.40
55135;DHT22;41031;44.750;11.308;2023-08-17T06:51:51;27.20;80.00
55135;DHT22;41031;44.750;11.308;2023-08-17T06:54:18;27.30;79.00
55135;DHT22;41031;44.750;11.308;2023-08-17T06:56:45;27.40;78.60
55135;DHT22;41031;44.750;11.308;2023-08-17T06:59:12;27.50;77.40
55135;DHT22;41031;44.750;11.308;2023-08-17T07:01:39;27.50;77.30
55135;DHT22;41031;44.750;11.308;2023-08-17T07:04:06;27.60;77.40
55135;DHT22;41031;44.750;11.308;2023-08-17T07:06:34;27.70;77.60
55135;DHT22;41031;44.750;11.308;2023-08-17T07:09:01;27.80;77.10
55135;DHT22;41031;44.750;11.308;2023-08-17T07:11:31;27.90;76.90
55135;DHT22;41031;44.750;11.308;2023-08-17T07:13:58;28.00;76.40
55135;DHT22;41031;44.750;11.308;2023-08-17T07:16:25;28.00;76.50
55135;DHT22;41031;44.750;11.308;2023-08-17T07:18:52;28.10;76.60
55135;DHT22;41031;44.750;11.308;2023-08-17T07:21:19;28.30;75.90
55135;DHT22;41031;44.750;11.308;2023-08-17T07:23:46;28.40;75.60
55135;DHT22;41031;44.750;11.308;2023-08-17T07:26:13;28.60;75.10
55135;DHT22;41031;44.750;11.308;2023-08-17T07:28:41;28.70;74.70
55135;DHT22;41031;44.750;11.308;2023-08-17T07:31:07;28.80;74.50
55135;DHT22;41031;44.750;11.308;2023-08-17T07:33:35;28.90;74.90
55135;DHT22;41031;44.750;11.308;2023-08-17T07:36:02;29.00;74.40
55135;DHT22;41031;44.750;11.308;2023-08-17T07:38:29;29.20;74.10
55135;DHT22;41031;44.750;11.308;2023-08-17T07:40:56;29.30;73.50
55135;DHT22;41031;44.750;11.308;2023-08-17T07:43:23;29.40;72.90
55135;DHT22;41031;44.750;11.308;2023-08-17T07:45:57;29.50;72.70
55135;DHT22;41031;44.750;11.308;2023-08-17T07:48:24;29.60;72.20
55135;DHT22;41031;44.750;11.308;2023-08-17T07:50:52;29.70;71.80
55135;DHT22;41031;44.750;11.308;2023-08-17T07:53:20;29.80;71.30
55135;DHT22;41031;44.750;11.308;2023-08-17T07:55:47;29.90;70.60
55135;DHT22;41031;44.750;11.308;2023-08-17T07:58:16;29.90;70.10
55135;DHT22;41031;44.750;11.308;2023-08-17T08:00:43;30.00;69.90
55135;DHT22;41031;44.750;11.308;2023-08-17T08:03:10;30.20;70.00
55135;DHT22;41031;44.750;11.308;2023-08-17T08:05:37;30.30;69.90
55135;DHT22;41031;44.750;11.308;2023-08-17T08:08:04;30.50;68.70
55135;DHT22;41031;44.750;11.308;2023-08-17T08:10:31;30.60;68.20
55135;DHT22;41031;44.750;11.308;2023-08-17T08:12:58;30.70;68.30
55135;DHT22;41031;44.750;11.308;2023-08-17T08:15:25;30.80;67.50
55135;DHT22;41031;44.750;11.308;2023-08-17T08:17:52;31.00;67.70
55135;DHT22;41031;44.750;11.308;2023-08-17T08:20:20;31.10;67.10
55135;DHT22;41031;44.750;11.308;2023-08-17T08:22:48;31.10;66.80
55135;DHT22;41031;44.750;11.308;2023-08-17T08:25:15;31.30;66.20
55135;DHT22;41031;44.750;11.308;2023-08-17T08:27:42;31.30;66.10
55135;DHT22;41031;44.750;11.308;2023-08-17T08:30:09;31.40;65.90
55135;DHT22;41031;44.750;11.308;2023-08-17T08:32:36;31.50;65.20
55135;DHT22;41031;44.750;11.308;2023-08-17T08:35:04;31.60;65.00
55135;DHT22;41031;44.750;11.308;2023-08-17T08:37:32;31.70;64.70
55135;DHT22;41031;44.750;11.308;2023-08-17T08:39:59;31.70;63.70
55135;DHT22;41031;44.750;11.308;2023-08-17T08:42:26;31.80;63.50
55135;DHT22;41031;44.750;11.308;2023-08-17T08:44:53;31.90;63.10
55135;DHT22;41031;44.750;11.308;2023-08-17T08:47:21;31.80;62.90
55135;DHT22;41031;44.750;11.308;2023-08-17T08:49:59;31.80;62.70
55135;DHT22;41031;44.750;11.308;2023-08-17T08:52:42;31.90;62.90
55135;DHT22;41031;44.750;11.308;2023-08-17T08:55:12;32.10;63.00
55135;DHT22;41031;44.750;11.308;2023-08-17T08:57:42;32.20;62.80
55135;DHT22;41031;44.750;11.308;2023-08-17T09:00:12;32.40;62.30
55135;DHT22;41031;44.750;11.308;2023-08-17T09:02:39;32.50;61.20
55135;DHT22;41031;44.750;11.308;2023-08-17T09:05:10;32.60;60.30
55135;DHT22;41031;44.750;11.308;2023-08-17T09:07:37;32.80;58.90
55135;DHT22;41031;44.750;11.308;2023-08-17T09:10:06;32.90;58.40
55135;DHT22;41031;44.750;11.308;2023-08-17T09:12:33;33.00;58.80
55135;DHT22;41031;44.750;11.308;2023-08-17T09:15:07;33.00;59.10
55135;DHT22;41031;44.750;11.308;2023-08-17T09:17:34;33.10;58.70
55135;DHT22;41031;44.750;11.308;2023-08-17T09:20:02;33.10;59.00
55135;DHT22;41031;44.750;11.308;2023-08-17T09:22:43;33.20;58.80
55135;DHT22;41031;44.750;11.308;2023-08-17T09:25:10;33.30;58.10
55135;DHT22;41031;44.750;11.308;2023-08-17T09:27:38;33.30;58.20
55135;DHT22;41031;44.750;11.308;2023-08-17T09:30:08;33.50;57.70
55135;DHT22;41031;44.750;11.308;2023-08-17T09:32:35;33.50;57.00
55135;DHT22;41031;44.750;11.308;2023-08-17T09:35:03;33.60;56.50
55135;DHT22;41031;44.750;11.308;2023-08-17T09:37:33;33.60;56.00
55135;DHT22;41031;44.750;11.308;2023-08-17T09:40:00;33.60;55.70
55135;DHT22;41031;44.750;11.308;2023-08-17T09:42:27;33.70;56.30
55135;DHT22;41031;44.750;11.308;2023-08-17T09:44:55;33.80;56.10
55135;DHT22;41031;44.750;11.308;2023-08-17T09:47:22;33.90;56.40
55135;DHT22;41031;44.750;11.308;2023-08-17T09:49:51;34.00;55.60
55135;DHT22;41031;44.750;11.308;2023-08-17T09:52:21;34.20;54.90
55135;DHT22;41031;44.750;11.308;2023-08-17T09:54:48;34.20;54.00
55135;DHT22;41031;44.750;11.308;2023-08-17T09:57:17;34.20;53.50
55135;DHT22;41031;44.750;11.308;2023-08-17T09:59:48;34.20;52.50
55135;DHT22;41031;44.750;11.308;2023-08-17T10:02:23;34.20;51.80
55135;DHT22;41031;44.750;11.308;2023-08-17T10:04:53;34.30;52.00
55135;DHT22;41031;44.750;11.308;2023-08-17T10:07:29;34.50;52.40
55135;DHT22;41031;44.750;11.308;2023-08-17T10:10:05;34.50;52.30
55135;DHT22;41031;44.750;11.308;2023-08-17T10:12:38;34.70;52.70
55135;DHT22;41031;44.750;11.308;2023-08-17T10:15:10;34.80;53.30
55135;DHT22;41031;44.750;11.308;2023-08-17T10:20:15;34.80;53.10
55135;DHT22;41031;44.750;11.308;2023-08-17T10:22:51;34.90;53.00
55135;DHT22;41031;44.750;11.308;2023-08-17T10:25:20;34.90;51.00
55135;DHT22;41031;44.750;11.308;2023-08-17T10:27:49;34.90;50.30
55135;DHT22;41031;44.750;11.308;2023-08-17T10:30:18;35.00;50.60
55135;DHT22;41031;44.750;11.308;2023-08-17T10:32:45;35.10;50.80
55135;DHT22;41031;44.750;11.308;2023-08-17T10:35:14;35.20;51.10
55135;DHT22;41031;44.750;11.308;2023-08-17T10:37:41;35.30;51.00
55135;DHT22;41031;44.750;11.308;2023-08-17T10:40:09;35.40;50.30
55135;DHT22;41031;44.750;11.308;2023-08-17T10:42:54;35.40;49.90
55135;DHT22;41031;44.750;11.308;2023-08-17T10:45:26;35.30;49.90
55135;DHT22;41031;44.750;11.308;2023-08-17T10:48:27;35.40;50.30
55135;DHT22;41031;44.750;11.308;2023-08-17T10:51:00;35.30;49.80
55135;DHT22;41031;44.750;11.308;2023-08-17T10:53:34;35.30;49.70
55135;DHT22;41031;44.750;11.308;2023-08-17T10:56:01;35.30;49.60
55135;DHT22;41031;44.750;11.308;2023-08-17T10:58:32;35.30;49.60
55135;DHT22;41031;44.750;11.308;2023-08-17T11:01:00;35.40;48.60
55135;DHT22;41031;44.750;11.308;2023-08-17T11:03:28;35.40;49.10
55135;DHT22;41031;44.750;11.308;2023-08-17T11:05:56;35.40;49.90
55135;DHT22;41031;44.750;11.308;2023-08-17T11:08:37;35.50;48.60
55135;DHT22;41031;44.750;11.308;2023-08-17T11:11:13;35.60;49.30
55135;DHT22;41031;44.750;11.308;2023-08-17T11:13:42;35.60;48.70
55135;DHT22;41031;44.750;11.308;2023-08-17T11:16:11;35.60;48.40
55135;DHT22;41031;44.750;11.308;2023-08-17T11:18:43;35.70;48.00
55135;DHT22;41031;44.750;11.308;2023-08-17T11:21:11;35.70;47.90
55135;DHT22;41031;44.750;11.308;2023-08-17T11:23:45;35.70;47.70
55135;DHT22;41031;44.750;11.308;2023-08-17T11:26:16;35.80;47.40
55135;DHT22;41031;44.750;11.308;2023-08-17T11:28:44;35.80;47.10
55135;DHT22;41031;44.750;11.308;2023-08-17T11:31:13;35.90;47.60
55135;DHT22;41031;44.750;11.308;2023-08-17T11:33:42;35.90;46.80
55135;DHT22;41031;44.750;11.308;2023-08-17T11:36:09;35.90;47.10
55135;DHT22;41031;44.750;11.308;2023-08-17T11:38:41;36.00;47.00
55135;DHT22;41031;44.750;11.308;2023-08-17T11:41:09;36.00;46.50
55135;DHT22;41031;44.750;11.308;2023-08-17T11:43:45;36.00;45.90
55135;DHT22;41031;44.750;11.308;2023-08-17T11:46:13;36.00;46.30
55135;DHT22;41031;44.750;11.308;2023-08-17T11:48:40;36.10;46.90
55135;DHT22;41031;44.750;11.308;2023-08-17T11:51:07;36.20;46.70
55135;DHT22;41031;44.750;11.308;2023-08-17T11:53:36;36.20;46.00
55135;DHT22;41031;44.750;11.308;2023-08-17T11:56:04;36.30;46.40
55135;DHT22;41031;44.750;11.308;2023-08-17T11:58:39;36.30;46.20
55135;DHT22;41031;44.750;11.308;2023-08-17T12:01:09;36.40;46.50
55135;DHT22;41031;44.750;11.308;2023-08-17T12:03:38;36.40;47.00
55135;DHT22;41031;44.750;11.308;2023-08-17T12:06:06;36.50;47.10
55135;DHT22;41031;44.750;11.308;2023-08-17T12:08:34;36.50;46.70
55135;DHT22;41031;44.750;11.308;2023-08-17T12:11:02;36.40;46.70
55135;DHT22;41031;44.750;11.308;2023-08-17T12:13:32;36.30;46.90
55135;DHT22;41031;44.750;11.308;2023-08-17T12:15:59;36.30;47.00
55135;DHT22;41031;44.750;11.308;2023-08-17T12:18:26;36.30;47.00
55135;DHT22;41031;44.750;11.308;2023-08-17T12:20:54;36.20;46.80
55135;DHT22;41031;44.750;11.308;2023-08-17T12:23:21;36.20;46.90
55135;DHT22;41031;44.750;11.308;2023-08-17T12:25:55;36.10;47.30
55135;DHT22;41031;44.750;11.308;2023-08-17T12:28:23;36.00;47.40
55135;DHT22;41031;44.750;11.308;2023-08-17T12:31:02;36.00;48.20
55135;DHT22;41031;44.750;11.308;2023-08-17T12:33:29;35.90;47.60
55135;DHT22;41031;44.750;11.308;2023-08-17T12:35:56;35.70;47.60
55135;DHT22;41031;44.750;11.308;2023-08-17T12:38:24;35.50;48.30
55135;DHT22;41031;44.750;11.308;2023-08-17T12:40:53;35.40;48.80
55135;DHT22;41031;44.750;11.308;2023-08-17T12:43:20;35.20;48.40
55135;DHT22;41031;44.750;11.308;2023-08-17T12:45:47;35.20;49.00
55135;DHT22;41031;44.750;11.308;2023-08-17T12:48:14;35.10;48.70
55135;DHT22;41031;44.750;11.308;2023-08-17T12:50:41;35.10;48.80
55135;DHT22;41031;44.750;11.308;2023-08-17T12:53:10;35.10;48.60
55135;DHT22;41031;44.750;11.308;2023-08-17T12:55:38;35.10;48.50
55135;DHT22;41031;44.750;11.308;2023-08-17T12:58:08;35.10;48.80
55135;DHT22;41031;44.750;11.308;2023-08-17T13:00:36;35.10;48.50
55135;DHT22;41031;44.750;11.308;2023-08-17T13:03:03;35.10;49.30
55135;DHT22;41031;44.750;11.308;2023-08-17T13:05:31;35.10;50.00
55135;DHT22;41031;44.750;11.308;2023-08-17T13:07:58;35.00;50.60
55135;DHT22;41031;44.750;11.308;2023-08-17T13:10:26;35.00;50.90
55135;DHT22;41031;44.750;11.308;2023-08-17T13:12:53;35.10;50.90
55135;DHT22;41031;44.750;11.308;2023-08-17T13:15:26;35.10;50.80
55135;DHT22;41031;44.750;11.308;2023-08-17T13:17:53;35.10;51.20
55135;DHT22;41031;44.750;11.308;2023-08-17T13:20:21;35.10;51.10
55135;DHT22;41031;44.750;11.308;2023-08-17T13:22:48;35.10;51.80
55135;DHT22;41031;44.750;11.308;2023-08-17T13:25:15;35.00;51.10
55135;DHT22;41031;44.750;11.308;2023-08-17T13:27:42;35.00;51.20
55135;DHT22;41031;44.750;11.308;2023-08-17T13:30:10;35.00;50.80
55135;DHT22;41031;44.750;11.308;2023-08-17T13:32:37;34.90;51.00
55135;DHT22;41031;44.750;11.308;2023-08-17T13:35:04;34.90;51.20
55135;DHT22;41031;44.750;11.308;2023-08-17T13:37:31;34.80;51.40
55135;DHT22;41031;44.750;11.308;2023-08-17T13:39:58;34.80;52.30
55135;DHT22;41031;44.750;11.308;2023-08-17T13:42:27;34.80;52.10
55135;DHT22;41031;44.750;11.308;2023-08-17T13:44:54;34.80;52.50
55135;DHT22;41031;44.750;11.308;2023-08-17T13:47:21;34.80;52.20
55135;DHT22;41031;44.750;11.308;2023-08-17T13:49:48;34.90;51.70
55135;DHT22;41031;44.750;11.308;2023-08-17T13:52:15;34.90;51.20
55135;DHT22;41031;44.750;11.308;2023-08-17T13:54:42;34.90;51.40
55135;DHT22;41031;44.750;11.308;2023-08-17T13:57:09;34.90;51.70
55135;DHT22;41031;44.750;11.308;2023-08-17T13:59:36;34.90;52.10
55135;DHT22;41031;44.750;11.308;2023-08-17T14:02:03;34.80;50.30
55135;DHT22;41031;44.750;11.308;2023-08-17T14:04:31;34.80;49.60
55135;DHT22;41031;44.750;11.308;2023-08-17T14:06:58;34.70;49.50
55135;DHT22;41031;44.750;11.308;2023-08-17T14:09:25;34.60;50.80
55135;DHT22;41031;44.750;11.308;2023-08-17T14:11:52;34.50;52.00
55135;DHT22;41031;44.750;11.308;2023-08-17T14:14:19;34.50;53.30
55135;DHT22;41031;44.750;11.308;2023-08-17T14:16:47;34.40;52.80
55135;DHT22;41031;44.750;11.308;2023-08-17T14:19:14;34.40;51.70
55135;DHT22;41031;44.750;11.308;2023-08-17T14:21:41;34.30;52.40
55135;DHT22;41031;44.750;11.308;2023-08-17T14:24:08;34.30;53.00
55135;DHT22;41031;44.750;11.308;2023-08-17T14:26:35;34.20;53.10
55135;DHT22;41031;44.750;11.308;2023-08-17T14:29:02;34.20;54.10
55135;DHT22;41031;44.750;11.308;2023-08-17T14:31:29;34.20;54.80
55135;DHT22;41031;44.750;11.308;2023-08-17T14:33:57;34.10;56.40
55135;DHT22;41031;44.750;11.308;2023-08-17T14:36:24;34.10;56.20
55135;DHT22;41031;44.750;11.308;2023-08-17T14:38:51;34.00;56.40
55135;DHT22;41031;44.750;11.308;2023-08-17T14:41:18;34.00;56.70
55135;DHT22;41031;44.750;11.308;2023-08-17T14:43:44;33.90;57.10
55135;DHT22;41031;44.750;11.308;2023-08-17T14:46:12;33.90;57.30
55135;DHT22;41031;44.750;11.308;2023-08-17T14:48:41;33.90;56.90
55135;DHT22;41031;44.750;11.308;2023-08-17T14:51:08;33.80;56.90
55135;DHT22;41031;44.750;11.308;2023-08-17T14:53:35;33.80;56.90
55135;DHT22;41031;44.750;11.308;2023-08-17T14:56:06;33.70;57.50
55135;DHT22;41031;44.750;11.308;2023-08-17T14:58:33;33.70;58.50
55135;DHT22;41031;44.750;11.308;2023-08-17T15:01:00;33.60;59.00
55135;DHT22;41031;44.750;11.308;2023-08-17T15:03:27;33.60;59.40
55135;DHT22;41031;44.750;11.308;2023-08-17T15:05:55;33.60;58.90
55135;DHT22;41031;44.750;11.308;2023-08-17T15:08:22;33.50;58.40
55135;DHT22;41031;44.750;11.308;2023-08-17T15:10:49;33.50;58.30
55135;DHT22;41031;44.750;11.308;2023-08-17T15:13:17;33.40;57.80
55135;DHT22;41031;44.750;11.308;2023-08-17T15:15:46;33.40;58.40
55135;DHT22;41031;44.750;11.308;2023-08-17T15:18:13;33.30;58.30
55135;DHT22;41031;44.750;11.308;2023-08-17T15:20:40;33.30;58.20
55135;DHT22;41031;44.750;11.308;2023-08-17T15:23:07;33.30;57.90
55135;DHT22;41031;44.750;11.308;2023-08-17T15:25:34;33.20;58.20
55135;DHT22;41031;44.750;11.308;2023-08-17T15:28:01;33.10;58.50
55135;DHT22;41031;44.750;11.308;2023-08-17T15:30:29;33.10;59.10
55135;DHT22;41031;44.750;11.308;2023-08-17T15:32:56;33.00;59.80